sensor_id;sensor_type;location;lat;lon;timestamp;P1;durP1;ratioP1;P2;durP2;ratioP2
9900;SDS011;4989;48.772;9.154;2023-08-30T00:00:35;39.17;;;35.50;;
9900;SDS011;4989;48.772;9.154;2023-08-30T00:05:40;41.17;;;37.17;;
9900;SDS011;4989;48.772;9.154;2023-08-30T00:10:47;40.37;;;36.47;;
9900;SDS011;4989;48.772;9.154;2023-08-30T00:15:49;39.10;;;35.37;;
9900;SDS011;4989;48.772;9.154;2023-08-30T00:20:51;37.87;;;34.33;;
9900;SDS011;4989;48.772;9.154;2023-08-30T00:25:54;38.03;;;34.57;;
9900;SDS011;4989;48.772;9.154;2023-08-30T00:30:56;36.83;;;33.53;;
9900;SDS011;4989;48.772;9.154;2023-08-30T00:35:59;37.43;;;34.13;;
9900;SDS011;4989;48.772;9.154;2023-08-30T00:41:02;36.17;;;33.03;;
9900;SDS011;4989;48.772;9.154;2023-08-30T00:46:05;35.50;;;32.40;;
9900;SDS011;4989;48.772;9.154;2023-08-30T00:51:07;35.30;;;32.20;;
9900;SDS011;4989;48.772;9.154;2023-08-30T00:56:09;35.90;;;32.80;;
9900;SDS011;4989;48.772;9.154;2023-08-30T01:01:12;37.23;;;34.00;;
9900;SDS011;4989;48.772;9.154;2023-08-30T01:06:15;36.87;;;33.63;;
9900;SDS011;4989;48.772;9.154;2023-08-30T01:11:31;36.50;;;33.23;;
9900;SDS011;4989;48.772;9.154;2023-08-30T01:16:44;36.80;;;33.53;;
9900;SDS011;4989;48.772;9.154;2023-08-30T01:27:06;36.47;;;33.20;;
9900;SDS011;4989;48.772;9.154;2023-08-30T01:32:11;37.53;;;34.17;;
9900;SDS011;4989;48.772;9.154;2023-08-30T01:37:15;37.67;;;34.27;;
9900;SDS011;4989;48.772;9.154;2023-08-30T01:42:18;37.10;;;33.80;;
9900;SDS011;4989;48.772;9.154;2023-08-30T01:47:27;37.03;;;33.77;;
9900;SDS011;4989;48.772;9.154;2023-08-30T01:52:31;36.20;;;33.00;;
9900;SDS011;4989;48.772;9.154;2023-08-30T01:57:35;35.73;;;32.60;;
9900;SDS011;4989;48.772;9.154;2023-08-30T02:02:37;36.27;;;33.07;;
9900;SDS011;4989;48.772;9.154;2023-08-30T02:07:42;35.80;;;32.60;;
9900;SDS011;4989;48.772;9.154;2023-08-30T02:13:11;36.00;;;32.80;;
9900;SDS011;4989;48.772;9.154;2023-08-30T02:18:15;36.70;;;33.47;;
9900;SDS011;4989;48.772;9.154;2023-08-30T02:23:17;36.83;;;33.63;;
9900;SDS011;4989;48.772;9.154;2023-08-30T02:28:20;36.07;;;32.97;;
9900;SDS011;4989;48.772;9.154;2023-08-30T02:33:22;36.13;;;33.03;;
9900;SDS011;4989;48.772;9.154;2023-08-30T02:38:24;35.33;;;32.30;;
9900;SDS011;4989;48.772;9.154;2023-08-30T02:43:26;34.73;;;31.73;;
9900;SDS011;4989;48.772;9.154;2023-08-30T02:48:29;35.83;;;32.73;;
9900;SDS011;4989;48.772;9.154;2023-08-30T02:53:31;36.87;;;33.67;;
9900;SDS011;4989;48.772;9.154;2023-08-30T02:58:34;37.20;;;33.97;;
9900;SDS011;4989;48.772;9.154;2023-08-30T03:03:36;36.87;;;33.67;;
9900;SDS011;4989;48.772;9.154;2023-08-30T03:08:38;36.30;;;33.13;;
9900;SDS011;4989;48.772;9.154;2023-08-30T03:13:44;35.60;;;32.47;;
9900;SDS011;4989;48.772;9.154;2023-08-30T03:18:46;36.23;;;33.03;;
9900;SDS011;4989;48.772;9.154;2023-08-30T03:23:50;36.03;;;32.90;;
9900;SDS011;4989;48.772;9.154;2023-08-30T03:28:52;36.13;;;33.03;;
9900;SDS011;4989;48.772;9.154;2023-08-30T03:33:54;36.93;;;33.73;;
9900;SDS011;4989;48.772;9.154;2023-08-30T03:38:56;37.60;;;34.30;;
9900;SDS011;4989;48.772;9.154;2023-08-30T03:43:58;36.37;;;33.13;;
9900;SDS011;4989;48.772;9.154;2023-08-30T03:49:00;35.97;;;32.77;;
9900;SDS011;4989;48.772;9.154;2023-08-30T03:54:02;36.63;;;33.37;;
9900;SDS011;4989;48.772;9.154;2023-08-30T03:59:05;36.87;;;33.60;;
9900;SDS011;4989;48.772;9.154;2023-08-30T04:04:07;36.47;;;33.23;;
9900;SDS011;4989;48.772;9.154;2023-08-30T04:09:09;37.23;;;33.97;;
9900;SDS011;4989;48.772;9.154;2023-08-30T04:14:11;36.57;;;33.37;;
9900;SDS011;4989;48.772;9.154;2023-08-30T04:19:15;36.67;;;33.47;;
9900;SDS011;4989;48.772;9.154;2023-08-30T04:24:18;35.97;;;32.80;;
9900;SDS011;4989;48.772;9.154;2023-08-30T04:29:20;37.53;;;34.30;;
9900;SDS011;4989;48.772;9.154;2023-08-30T04:34:24;36.63;;;33.47;;
9900;SDS011;4989;48.772;9.154;2023-08-30T04:39:26;36.53;;;33.43;;
9900;SDS011;4989;48.772;9.154;2023-08-30T04:44:28;35.50;;;32.40;;
9900;SDS011;4989;48.772;9.154;2023-08-30T04:49:30;36.50;;;33.33;;
9900;SDS011;4989;48.772;9.154;2023-08-30T04:54:33;36.50;;;33.37;;
9900;SDS011;4989;48.772;9.154;2023-08-30T04:59:36;35.70;;;32.60;;
9900;SDS011;4989;48.772;9.154;2023-08-30T05:04:39;35.97;;;32.87;;
9900;SDS011;4989;48.772;9.154;2023-08-30T05:09:41;37.00;;;33.80;;
9900;SDS011;4989;48.772;9.154;2023-08-30T05:14:43;36.17;;;33.07;;
9900;SDS011;4989;48.772;9.154;2023-08-30T05:19:45;36.70;;;33.50;;
9900;SDS011;4989;48.772;9.154;2023-08-30T05:24:48;36.63;;;33.43;;
9900;SDS011;4989;48.772;9.154;2023-08-30T05:29:50;36.57;;;33.33;;
9900;SDS011;4989;48.772;9.154;2023-08-30T05:34:55;37.00;;;33.70;;
9900;SDS011;4989;48.772;9.154;2023-08-30T05:40:02;37.47;;;34.10;;
9900;SDS011;4989;48.772;9.154;2023-08-30T05:45:05;37.80;;;34.43;;
9900;SDS011;4989;48.772;9.154;2023-08-30T05:50:09;36.97;;;33.53;;
9900;SDS011;4989;48.772;9.154;2023-08-30T05:55:11;37.40;;;34.03;;
9900;SDS011;4989;48.772;9.154;2023-08-30T06:00:14;36.80;;;33.50;;
9900;SDS011;4989;48.772;9.154;2023-08-30T06:05:17;36.67;;;33.47;;
9900;SDS011;4989;48.772;9.154;2023-08-30T06:10:20;36.50;;;33.37;;
9900;SDS011;4989;48.772;9.154;2023-08-30T06:15:23;36.00;;;32.90;;
9900;SDS011;4989;48.772;9.154;2023-08-30T06:20:25;35.83;;;32.73;;
9900;SDS011;4989;48.772;9.154;2023-08-30T06:25:28;35.83;;;32.70;;
9900;SDS011;4989;48.772;9.154;2023-08-30T06:30:31;36.53;;;33.33;;
9900;SDS011;4989;48.772;9.154;2023-08-30T06:35:35;36.93;;;33.63;;
9900;SDS011;4989;48.772;9.154;2023-08-30T06:40:43;38.40;;;34.93;;
9900;SDS011;4989;48.772;9.154;2023-08-30T06:45:46;37.43;;;34.03;;
9900;SDS011;4989;48.772;9.154;2023-08-30T06:50:49;37.57;;;34.13;;
9900;SDS011;4989;48.772;9.154;2023-08-30T06:55:58;38.20;;;34.77;;
9900;SDS011;4989;48.772;9.154;2023-08-30T07:01:01;37.37;;;34.07;;
9900;SDS011;4989;48.772;9.154;2023-08-30T07:06:05;37.23;;;33.93;;
9900;SDS011;4989;48.772;9.154;2023-08-30T07:11:07;37.13;;;33.83;;
9900;SDS011;4989;48.772;9.154;2023-08-30T07:16:31;36.97;;;33.77;;
9900;SDS011;4989;48.772;9.154;2023-08-30T07:21:33;35.87;;;32.77;;
9900;SDS011;4989;48.772;9.154;2023-08-30T07:26:39;35.23;;;32.23;;
9900;SDS011;4989;48.772;9.154;2023-08-30T07:31:42;35.93;;;32.90;;
9900;SDS011;4989;48.772;9.154;2023-08-30T07:36:44;35.67;;;32.67;;
9900;SDS011;4989;48.772;9.154;2023-08-30T07:41:48;36.83;;;33.80;;
9900;SDS011;4989;48.772;9.154;2023-08-30T07:46:50;35.03;;;32.03;;
9900;SDS011;4989;48.772;9.154;2023-08-30T07:51:53;35.47;;;32.57;;
9900;SDS011;4989;48.772;9.154;2023-08-30T07:56:55;34.00;;;31.20;;
9900;SDS011;4989;48.772;9.154;2023-08-30T08:01:57;33.40;;;30.60;;
9900;SDS011;4989;48.772;9.154;2023-08-30T08:06:59;34.07;;;31.23;;
9900;SDS011;4989;48.772;9.154;2023-08-30T08:12:03;38.63;;;35.60;;
9900;SDS011;4989;48.772;9.154;2023-08-30T08:17:05;35.73;;;32.80;;
9900;SDS011;4989;48.772;9.154;2023-08-30T08:22:08;35.33;;;32.37;;
9900;SDS011;4989;48.772;9.154;2023-08-30T08:27:10;34.17;;;31.30;;
9900;SDS011;4989;48.772;9.154;2023-08-30T08:32:12;34.63;;;31.80;;
9900;SDS011;4989;48.772;9.154;2023-08-30T08:37:15;34.73;;;31.90;;
9900;SDS011;4989;48.772;9.154;2023-08-30T08:42:20;35.17;;;32.27;;
9900;SDS011;4989;48.772;9.154;2023-08-30T08:47:23;34.87;;;31.97;;
9900;SDS011;4989;48.772;9.154;2023-08-30T08:52:26;34.57;;;31.70;;
9900;SDS011;4989;48.772;9.154;2023-08-30T08:57:38;35.17;;;32.23;;
9900;SDS011;4989;48.772;9.154;2023-08-30T09:02:44;34.40;;;31.53;;
9900;SDS011;4989;48.772;9.154;2023-08-30T09:07:47;34.03;;;31.20;;
9900;SDS011;4989;48.772;9.154;2023-08-30T09:12:55;35.13;;;32.20;;
9900;SDS011;4989;48.772;9.154;2023-08-30T09:17:57;34.87;;;31.90;;
9900;SDS011;4989;48.772;9.154;2023-08-30T09:23:02;35.93;;;32.90;;
9900;SDS011;4989;48.772;9.154;2023-08-30T09:28:05;36.33;;;33.23;;
9900;SDS011;4989;48.772;9.154;2023-08-30T09:33:07;36.80;;;33.63;;
9900;SDS011;4989;48.772;9.154;2023-08-30T09:38:20;36.20;;;33.07;;
9900;SDS011;4989;48.772;9.154;2023-08-30T09:43:23;37.17;;;33.97;;
9900;SDS011;4989;48.772;9.154;2023-08-30T09:48:29;36.63;;;33.43;;
9900;SDS011;4989;48.772;9.154;2023-08-30T09:53:32;36.80;;;33.50;;
9900;SDS011;4989;48.772;9.154;2023-08-30T09:58:57;39.17;;;35.57;;
9900;SDS011;4989;48.772;9.154;2023-08-30T10:04:01;41.00;;;37.10;;
9900;SDS011;4989;48.772;9.154;2023-08-30T10:09:08;40.43;;;36.40;;
9900;SDS011;4989;48.772;9.154;2023-08-30T10:14:11;40.90;;;36.80;;
9900;SDS011;4989;48.772;9.154;2023-08-30T10:24:24;42.33;;;38.03;;
9900;SDS011;4989;48.772;9.154;2023-08-30T10:29:49;43.33;;;38.93;;
9900;SDS011;4989;48.772;9.154;2023-08-30T10:34:52;41.43;;;37.10;;
9900;SDS011;4989;48.772;9.154;2023-08-30T10:40:01;41.10;;;36.87;;
9900;SDS011;4989;48.772;9.154;2023-08-30T10:45:07;42.03;;;37.73;;
9900;SDS011;4989;48.772;9.154;2023-08-30T10:50:26;42.10;;;37.80;;
9900;SDS011;4989;48.772;9.154;2023-08-30T10:55:31;41.97;;;37.67;;
9900;SDS011;4989;48.772;9.154;2023-08-30T11:00:34;41.60;;;37.40;;
9900;SDS011;4989;48.772;9.154;2023-08-30T11:05:40;40.70;;;36.60;;
9900;SDS011;4989;48.772;9.154;2023-08-30T11:10:45;40.27;;;36.20;;
9900;SDS011;4989;48.772;9.154;2023-08-30T11:15:50;41.27;;;37.07;;
9900;SDS011;4989;48.772;9.154;2023-08-30T11:20:53;44.83;;;40.43;;
9900;SDS011;4989;48.772;9.154;2023-08-30T11:26:01;41.97;;;37.57;;
9900;SDS011;4989;48.772;9.154;2023-08-30T11:31:05;42.90;;;38.50;;
9900;SDS011;4989;48.772;9.154;2023-08-30T11:36:08;42.00;;;37.60;;
9900;SDS011;4989;48.772;9.154;2023-08-30T11:41:10;41.60;;;37.23;;
9900;SDS011;4989;48.772;9.154;2023-08-30T11:46:16;42.13;;;37.73;;
9900;SDS011;4989;48.772;9.154;2023-08-30T11:51:20;42.57;;;38.17;;
9900;SDS011;4989;48.772;9.154;2023-08-30T11:56:22;42.00;;;37.60;;
9900;SDS011;4989;48.772;9.154;2023-08-30T12:01:26;42.80;;;38.33;;
9900;SDS011;4989;48.772;9.154;2023-08-30T12:06:31;43.13;;;38.63;;
9900;SDS011;4989;48.772;9.154;2023-08-30T12:11:34;42.17;;;37.77;;
9900;SDS011;4989;48.772;9.154;2023-08-30T12:16:36;41.53;;;37.33;;
9900;SDS011;4989;48.772;9.154;2023-08-30T12:21:39;40.23;;;36.27;;
9900;SDS011;4989;48.772;9.154;2023-08-30T12:26:43;40.13;;;36.40;;
9900;SDS011;4989;48.772;9.154;2023-08-30T12:31:46;38.27;;;34.80;;
9900;SDS011;4989;48.772;9.154;2023-08-30T12:36:50;38.23;;;34.70;;
9900;SDS011;4989;48.772;9.154;2023-08-30T12:41:53;39.03;;;35.57;;
9900;SDS011;4989;48.772;9.154;2023-08-30T12:46:59;38.13;;;34.70;;
9900;SDS011;4989;48.772;9.154;2023-08-30T12:52:02;38.73;;;35.27;;
9900;SDS011;4989;48.772;9.154;2023-08-30T12:57:05;38.10;;;34.70;;
9900;SDS011;4989;48.772;9.154;2023-08-30T13:02:08;37.40;;;34.03;;
9900;SDS011;4989;48.772;9.154;2023-08-30T13:07:11;36.73;;;33.33;;
9900;SDS011;4989;48.772;9.154;2023-08-30T13:12:14;38.50;;;35.03;;
9900;SDS011;4989;48.772;9.154;2023-08-30T13:17:16;39.27;;;35.80;;
9900;SDS011;4989;48.772;9.154;2023-08-30T13:22:19;37.70;;;34.33;;
9900;SDS011;4989;48.772;9.154;2023-08-30T13:27:22;38.77;;;35.30;;
9900;SDS011;4989;48.772;9.154;2023-08-30T13:32:25;40.43;;;36.57;;
9900;SDS011;4989;48.772;9.154;2023-08-30T13:37:28;39.73;;;35.90;;
9900;SDS011;4989;48.772;9.154;2023-08-30T13:42:32;41.77;;;37.60;;
9900;SDS011;4989;48.772;9.154;2023-08-30T13:47:55;41.60;;;37.40;;
9900;SDS011;4989;48.772;9.154;2023-08-30T13:52:58;42.10;;;37.70;;
9900;SDS011;4989;48.772;9.154;2023-08-30T13:58:00;42.53;;;38.13;;
9900;SDS011;4989;48.772;9.154;2023-08-30T14:03:05;43.80;;;39.37;;
9900;SDS011;4989;48.772;9.154;2023-08-30T14:08:10;41.97;;;37.67;;
9900;SDS011;4989;48.772;9.154;2023-08-30T14:13:15;42.47;;;38.23;;
9900;SDS011;4989;48.772;9.154;2023-08-30T14:18:26;41.83;;;37.67;;
9900;SDS011;4989;48.772;9.154;2023-08-30T14:23:29;42.10;;;37.90;;
9900;SDS011;4989;48.772;9.154;2023-08-30T14:28:33;41.00;;;36.90;;
9900;SDS011;4989;48.772;9.154;2023-08-30T14:33:36;41.17;;;37.07;;
9900;SDS011;4989;48.772;9.154;2023-08-30T14:38:39;40.47;;;36.53;;
9900;SDS011;4989;48.772;9.154;2023-08-30T14:43:42;40.30;;;36.43;;
9900;SDS011;4989;48.772;9.154;2023-08-30T14:48:45;41.00;;;37.03;;
9900;SDS011;4989;48.772;9.154;2023-08-30T14:53:48;40.70;;;36.73;;
9900;SDS011;4989;48.772;9.154;2023-08-30T14:58:52;40.47;;;36.50;;
9900;SDS011;4989;48.772;9.154;2023-08-30T15:03:55;40.27;;;36.30;;
9900;SDS011;4989;48.772;9.154;2023-08-30T15:08:58;40.37;;;36.40;;
9900;SDS011;4989;48.772;9.154;2023-08-30T15:14:03;40.87;;;36.90;;
9900;SDS011;4989;48.772;9.154;2023-08-30T15:19:05;40.10;;;36.17;;
9900;SDS011;4989;48.772;9.154;2023-08-30T15:24:08;40.93;;;36.87;;
9900;SDS011;4989;48.772;9.154;2023-08-30T15:29:11;41.50;;;37.43;;
9900;SDS011;4989;48.772;9.154;2023-08-30T15:34:13;42.87;;;38.70;;
9900;SDS011;4989;48.772;9.154;2023-08-30T15:39:16;40.90;;;36.80;;
9900;SDS011;4989;48.772;9.154;2023-08-30T15:44:19;40.50;;;36.47;;
9900;SDS011;4989;48.772;9.154;2023-08-30T15:49:22;42.93;;;38.73;;
9900;SDS011;4989;48.772;9.154;2023-08-30T15:54:24;41.90;;;37.70;;
9900;SDS011;4989;48.772;9.154;2023-08-30T15:59:27;41.20;;;37.07;;
9900;SDS011;4989;48.772;9.154;2023-08-30T16:04:30;40.93;;;36.80;;
9900;SDS011;4989;48.772;9.154;2023-08-30T16:09:35;41.67;;;37.57;;
9900;SDS011;4989;48.772;9.154;2023-08-30T16:14:38;41.23;;;37.13;;
9900;SDS011;4989;48.772;9.154;2023-08-30T16:19:40;41.83;;;37.73;;
9900;SDS011;4989;48.772;9.154;2023-08-30T16:24:43;42.13;;;38.07;;
9900;SDS011;4989;48.772;9.154;2023-08-30T16:29:45;41.00;;;37.00;;
9900;SDS011;4989;48.772;9.154;2023-08-30T16:34:48;41.00;;;37.00;;
9900;SDS011;4989;48.772;9.154;2023-08-30T16:39:51;40.77;;;36.77;;
9900;SDS011;4989;48.772;9.154;2023-08-30T16:44:54;41.00;;;37.03;;
9900;SDS011;4989;48.772;9.154;2023-08-30T16:49:57;40.80;;;36.83;;
9900;SDS011;4989;48.772;9.154;2023-08-30T16:55:00;40.67;;;36.70;;
9900;SDS011;4989;48.772;9.154;2023-08-30T17:00:02;41.23;;;37.30;;
9900;SDS011;4989;48.772;9.154;2023-08-30T17:05:14;40.87;;;36.93;;
9900;SDS011;4989;48.772;9.154;2023-08-30T17:10:16;40.87;;;36.97;;
9900;SDS011;4989;48.772;9.154;2023-08-30T17:15:19;40.70;;;36.87;;
9900;SDS011;4989;48.772;9.154;2023-08-30T17:20:22;40.27;;;36.47;;
9900;SDS011;4989;48.772;9.154;2023-08-30T17:25:24;40.33;;;36.60;;
9900;SDS011;4989;48.772;9.154;2023-08-30T17:30:28;40.60;;;36.83;;
9900;SDS011;4989;48.772;9.154;2023-08-30T17:35:34;42.27;;;38.27;;
9900;SDS011;4989;48.772;9.154;2023-08-30T17:40:37;41.80;;;37.70;;
9900;SDS011;4989;48.772;9.154;2023-08-30T17:45:39;41.50;;;37.50;;
9900;SDS011;4989;48.772;9.154;2023-08-30T17:50:43;42.97;;;39.00;;
9900;SDS011;4989;48.772;9.154;2023-08-30T17:55:55;40.73;;;36.87;;
9900;SDS011;4989;48.772;9.154;2023-08-30T18:00:59;41.37;;;37.50;;
9900;SDS011;4989;48.772;9.154;2023-08-30T18:06:02;40.17;;;36.43;;
9900;SDS011;4989;48.772;9.154;2023-08-30T18:11:12;40.40;;;36.77;;
9900;SDS011;4989;48.772;9.154;2023-08-30T18:16:20;38.40;;;34.87;;
9900;SDS011;4989;48.772;9.154;2023-08-30T18:21:25;53.83;;;49.73;;
9900;SDS011;4989;48.772;9.154;2023-08-30T18:26:29;37.47;;;34.13;;
9900;SDS011;4989;48.772;9.154;2023-08-30T18:31:32;37.97;;;34.63;;
9900;SDS011;4989;48.772;9.154;2023-08-30T18:36:34;38.10;;;34.77;;
9900;SDS011;4989;48.772;9.154;2023-08-30T18:41:37;39.73;;;36.33;;
9900;SDS011;4989;48.772;9.154;2023-08-30T18:46:40;37.77;;;34.47;;
9900;SDS011;4989;48.772;9.154;2023-08-30T18:51:46;37.83;;;34.60;;
9900;SDS011;4989;48.772;9.154;2023-08-30T18:56:49;38.03;;;34.80;;
9900;SDS011;4989;48.772;9.154;2023-08-30T19:01:51;36.67;;;33.50;;
9900;SDS011;4989;48.772;9.154;2023-08-30T19:06:54;36.47;;;33.30;;
9900;SDS011;4989;48.772;9.154;2023-08-30T19:11:57;36.67;;;33.47;;
9900;SDS011;4989;48.772;9.154;2023-08-30T19:16:59;37.77;;;34.50;;
9900;SDS011;4989;48.772;9.154;2023-08-30T19:22:05;37.10;;;33.87;;
9900;SDS011;4989;48.772;9.154;2023-08-30T19:27:08;37.70;;;34.40;;
9900;SDS011;4989;48.772;9.154;2023-08-30T19:32:13;38.53;;;35.13;;
9900;SDS011;4989;48.772;9.154;2023-08-30T19:37:17;39.07;;;35.43;;
9900;SDS011;4989;48.772;9.154;2023-08-30T19:42:22;41.90;;;37.87;;
9900;SDS011;4989;48.772;9.154;2023-08-30T19:47:27;42.07;;;37.87;;
9900;SDS011;4989;48.772;9.154;2023-08-30T19:52:31;42.00;;;37.73;;
9900;SDS011;4989;48.772;9.154;2023-08-30T19:57:33;41.63;;;37.33;;
9900;SDS011;4989;48.772;9.154;2023-08-30T20:02:38;42.23;;;37.93;;
9900;SDS011;4989;48.772;9.154;2023-08-30T20:07:41;43.60;;;39.20;;
9900;SDS011;4989;48.772;9.154;2023-08-30T20:12:45;43.37;;;38.97;;
9900;SDS011;4989;48.772;9.154;2023-08-30T20:17:48;42.30;;;37.93;;
9900;SDS011;4989;48.772;9.154;2023-08-30T20:22:51;42.57;;;38.10;;
9900;SDS011;4989;48.772;9.154;2023-08-30T20:27:53;42.67;;;38.20;;
9900;SDS011;4989;48.772;9.154;2023-08-30T20:32:58;42.50;;;38.10;;
9900;SDS011;4989;48.772;9.154;2023-08-30T20:38:01;42.83;;;38.43;;
9900;SDS011;4989;48.772;9.154;2023-08-30T20:43:05;42.03;;;37.77;;
9900;SDS011;4989;48.772;9.154;2023-08-30T20:48:09;42.47;;;38.20;;
9900;SDS011;4989;48.772;9.154;2023-08-30T20:53:11;56.87;;;52.17;;
9900;SDS011;4989;48.772;9.154;2023-08-30T20:58:14;41.20;;;37.13;;
9900;SDS011;4989;48.772;9.154;2023-08-30T21:03:19;39.87;;;36.03;;
9900;SDS011;4989;48.772;9.154;2023-08-30T21:08:21;38.90;;;35.37;;
9900;SDS011;4989;48.772;9.154;2023-08-30T21:13:25;38.03;;;34.63;;
9900;SDS011;4989;48.772;9.154;2023-08-30T21:18:27;37.90;;;34.53;;
9900;SDS011;4989;48.772;9.154;2023-08-30T21:23:30;38.43;;;35.00;;
9900;SDS011;4989;48.772;9.154;2023-08-30T21:28:37;38.80;;;35.33;;
9900;SDS011;4989;48.772;9.154;2023-08-30T21:33:42;37.67;;;34.30;;
9900;SDS011;4989;48.772;9.154;2023-08-30T21:38:44;37.47;;;34.17;;
9900;SDS011;4989;48.772;9.154;2023-08-30T21:43:47;38.33;;;35.03;;
9900;SDS011;4989;48.772;9.154;2023-08-30T21:48:49;37.83;;;34.47;;
9900;SDS011;4989;48.772;9.154;2023-08-30T21:53:51;39.10;;;35.53;;
9900;SDS011;4989;48.772;9.154;2023-08-30T21:58:53;38.27;;;34.70;;
9900;SDS011;4989;48.772;9.154;2023-08-30T22:03:55;39.33;;;35.80;;
9900;SDS011;4989;48.772;9.154;2023-08-30T22:08:57;38.00;;;34.60;;
9900;SDS011;4989;48.772;9.154;2023-08-30T22:14:00;37.93;;;34.53;;
9900;SDS011;4989;48.772;9.154;2023-08-30T22:19:10;37.03;;;33.73;;
9900;SDS011;4989;48.772;9.154;2023-08-30T22:24:13;36.73;;;33.47;;
9900;SDS011;4989;48.772;9.154;2023-08-30T22:29:15;37.53;;;34.23;;
9900;SDS011;4989;48.772;9.154;2023-08-30T22:34:18;35.93;;;32.77;;
9900;SDS011;4989;48.772;9.154;2023-08-30T22:39:20;35.43;;;32.33;;
9900;SDS011;4989;48.772;9.154;2023-08-30T22:44:23;35.37;;;32.33;;
9900;SDS011;4989;48.772;9.154;2023-08-30T22:49:25;34.83;;;31.83;;
9900;SDS011;4989;48.772;9.154;2023-08-30T22:54:27;34.97;;;32.00;;
9900;SDS011;4989;48.772;9.154;2023-08-30T22:59:30;34.00;;;31.13;;
9900;SDS011;4989;48.772;9.154;2023-08-30T23:04:34;33.90;;;31.07;;
9900;SDS011;4989;48.772;9.154;2023-08-30T23:09:36;33.60;;;30.83;;
9900;SDS011;4989;48.772;9.154;2023-08-30T23:14:40;33.57;;;30.83;;
9900;SDS011;4989;48.772;9.154;2023-08-30T23:19:42;33.40;;;30.67;;
9900;SDS011;4989;48.772;9.154;2023-08-30T23:24:45;33.53;;;30.77;;
9900;SDS011;4989;48.772;9.154;2023-08-30T23:29:47;33.37;;;30.63;;
9900;SDS011;4989;48.772;9.154;2023-08-30T23:34:50;33.30;;;30.53;;
9900;SDS011;4989;48.772;9.154;2023-08-30T23:39:52;33.27;;;30.50;;
9900;SDS011;4989;48.772;9.154;2023-08-30T23:44:55;33.50;;;30.73;;
9900;SDS011;4989;48.772;9.154;2023-08-30T23:49:57;32.93;;;30.23;;
9900;SDS011;4989;48.772;9.154;2023-08-30T23:55:01;33.23;;;30.50;;
